logo
App data

Greed: Black Border

Hack ‘n slash your way through this science-fiction-themed action/RPG. In the futuristic universe of GREED, the discovery of new interstellar travel possibilities has led to a new age of colonialization. The five largest colonial powers are entangled in a full-scale war over a new element called Ikarium, the recently discovered rare...
Store | Hub | SteamDB
Developer: Headup Games, Clockstone Publisher: Headup Games
Genre: Action, RPG
Languages: English, German
Tags: Action (45), RPG (40), Sci-fi (19), Action RPG (18), Co-op (14), Indie (12), Isometric (12), Singleplayer (9), Loot (5)
Category: Single-player, Co-op
Release date: Jan 13, 2010
Price: $4.99
Score rank: 8% Userscore: 44% Old userscore: 41%
Owners: 100,000 .. 200,000
Followers: 486
Peak concurrent players yesterday: 2
Playtime in the last 2 weeks: 00:42 (average) 00:42 (median)
Playtime total: 01:14 (average) 00:38 (median)

Steam Spy is still in beta, so expect major bugs.

Owners data:

Access restricted.

This feature is only available to users with special access rights. Sorry.

If you want to proceed, you need to register or log in first and then back Steam Spy on Patreon. Look for Indie or Pro pledge.

Don't forget to use the same email as on Steam Spy!

Audience in 2 weeks:

Access restricted.

This feature is only available to users with special access rights. Sorry.

If you want to proceed, you need to register or log in first and then back Steam Spy on Patreon. Look for Indie or Pro pledge.

Don't forget to use the same email as on Steam Spy!

Peak daily concurrent players:

CCU data courtesy of SteamDB. Used with permission.

Hourly concurrent players:

YouTube:

The views data is based on top 50 videos uploaded last week. Actual number of views might be more than the number shown.

The displayed number of videos uploaded yesterday is limited to 50, so if there were more videos uploaded, the number will still show 50.

If the game has commonly used word as its name (like "FEAR" or "Volume") its number of Youtube views might be wrong.

Games similar to this one:

# Game Release date
Price
Score rank
(Userscore / Metascore)
Owners
Players
Playtime (Median)
1 Reverse x Reverse Dec 10, 2015 $9.99N/A (N/A)0 .. 20,0000%00:00 (00:00)
2 Umihara Kawase Nov 2, 2015 $9.9999% (98%)0 .. 20,0000%00:00 (00:00)
3 The Dishwasher: Vampire Smile May 12, 2017 $9.9995% (96%)0 .. 20,0000%00:00 (00:00)
4 Hide & Spook: The Haunted Alchemist Oct 28, 2016 FreeN/A (N/A)0 .. 20,0000%00:00 (00:00)
5 Bio Menace Aug 3, 1993 N/AN/A (N/A)0 .. 20,0000%00:00 (00:00)
6 Requiem: Avenging Angel Mar 31, 1999 $9.99N/A (N/A)0 .. 20,0000%00:00 (00:00)
7 JUJU Dec 10, 2014 $19.9993% (95%/65%)0 .. 20,0000%00:00 (00:00)
8 Aaero Apr 11, 2017 $14.9990% (94%)0 .. 20,0000%00:00 (00:00)
9 Disney G-Force Jul 21, 2009 $19.9987% (93%/61%)0 .. 20,0000%00:00 (00:00)
10 Immortal Redneck Apr 25, 2017 $19.9587% (93%/70%)20,000 .. 50,0007.14%00:12 (00:08)
11 NotCoD May 19, 2016 $4.9987% (93%)0 .. 20,0000%00:00 (00:00)
12 Guns, Gore & Cannoli Apr 30, 2015 $9.9987% (93%/74%)50,000 .. 100,0002.86%15:32 (05:10)
13 Charlie Murder May 12, 2017 $9.9987% (93%)0 .. 20,0000%00:00 (00:00)
14 Space Ace Aug 27, 2013 $9.9983% (92%)0 .. 20,0000%00:00 (00:00)
15 A Rose in the Twilight / ロゼと黄昏の古城 Apr 11, 2017 $19.9983% (92%)0 .. 20,0000%00:00 (00:00)
16 Tokyo Babel Mar 31, 2016 $34.9979% (91%)0 .. 20,0000%00:00 (00:00)
17 A Lenda do Herói - O Herói desta Canção Apr 24, 2017 $15.9976% (90%)20,000 .. 50,00020%10:56 (03:38)
18 Terminal Velocity May 1, 1995 $6.99N/A (N/A)20,000 .. 50,0000%00:00 (00:00)
19 Mayhem Triple Sep 4, 2015 $4.99N/A (N/A)0 .. 20,0000%00:00 (00:00)
20 Xmas Shooting - Scramble!! Dec 16, 2016 $4.9973% (89%)0 .. 20,0000%00:00 (00:00)
21 THE WALL 墙 Jun 8, 2017 $1.9973% (89%)0 .. 20,0000%00:00 (00:00)
22 Word Rescue May 1, 1992 $4.99N/A (N/A)0 .. 20,0000%00:00 (00:00)
23 Mystik Belle May 15, 2015 $14.9970% (88%)0 .. 20,0000%00:00 (00:00)
24 Color Guardians May 12, 2015 $14.99N/A (N/A)0 .. 20,0000%00:00 (00:00)
25 SPINGUN Nov 11, 2016 $1.9968% (87%)0 .. 20,0000%00:00 (00:00)
26 Neighborhorde Jun 5, 2017 $4.99N/A (N/A)0 .. 20,0000%00:00 (00:00)
27 Disney Princess: My Fairytale Adventure May 25, 2012 $19.9965% (86%)0 .. 20,0000%00:00 (00:00)
28 Disney's Chicken Little Oct 20, 2005 $9.9965% (86%)0 .. 20,0000%00:00 (00:00)
29 Rocket Fist May 12, 2016 $4.9965% (86%)0 .. 20,0000%00:00 (00:00)
30 Skylar & Plux: Adventure On Clover Island May 19, 2017 $14.9962% (85%)0 .. 20,0000%00:00 (00:00)
31 Nongünz May 19, 2017 $6.9962% (85%)100,000 .. 200,0000.64%00:51 (00:17)
32 Vintage Year Jan 2, 2015 $2.9962% (85%)0 .. 20,0000%00:00 (00:00)
33 Spaceman Sparkles 3 Mar 21, 2016 $4.99N/A (N/A)0 .. 20,0000%00:00 (00:00)
34 I Am The Hero Jan 16, 2017 $9.9960% (84%)20,000 .. 50,0000%00:00 (00:00)
35 Isbarah Feb 25, 2015 $13.99N/A (N/A)0 .. 20,00037.5%06:05 (04:59)
36 Lightblade VR May 31, 2016 $3.9960% (84%)20,000 .. 50,0000%00:00 (00:00)
37 Suicide Guy Jul 14, 2017 $4.9960% (84%)0 .. 20,0000%00:00 (00:00)
38 Scribble Ships Mar 29, 2017 $3.99N/A (N/A)0 .. 20,0000%00:00 (00:00)
39 2 Ninjas 1 Cup Feb 3, 2017 $0.9957% (83%)0 .. 20,0000%00:00 (00:00)
40 Fighties Jul 13, 2015 $4.9957% (83%)0 .. 20,0000%00:00 (00:00)
41 Nandeyanen!? - The 1st Sûtra Jul 22, 2015 $1.99N/A (N/A)0 .. 20,0000%00:00 (00:00)
42 Dimensional Dec 14, 2016 $4.99N/A (N/A)0 .. 20,0000%00:00 (00:00)
43 Stargunner Nov 19, 1996 Free55% (82%)0 .. 20,0000%00:00 (00:00)
44 Caladrius Blaze Jan 12, 2017 $24.9952% (81%)0 .. 20,0000%00:00 (00:00)
45 forma.8 Feb 23, 2017 $9.99N/A (N/A)0 .. 20,0000%00:00 (00:00)
46 Airport Madness: World Edition May 28, 2015 $9.9950% (80%)20,000 .. 50,0000%00:00 (00:00)
47 Davyria: Heroes of Eternity Mar 10, 2017 $8.99N/A (N/A)0 .. 20,0000%00:00 (00:00)
48 Spaceman Sparkles 2 May 20, 2015 $2.9950% (80%)0 .. 20,0000%00:00 (00:00)
49 Toukiden 2 Mar 21, 2017 $59.9950% (80%/73%)20,000 .. 50,0000%00:00 (00:00)
50 Disney Infinity 3.0: Gold Edition Dec 9, 2016 $29.9946% (78%)0 .. 20,0004.55%00:35 (00:11)
51 Gnomes Vs. Fairies: Greckel's Quest Jul 1, 2016 $9.9946% (78%)0 .. 20,0000%00:00 (00:00)
52 Xenocide Aug 28, 2015 $2.99N/A (N/A)0 .. 20,0000%00:00 (00:00)
53 Quick Draw Jan 10, 2017 $9.99N/A (N/A)0 .. 20,0000%00:00 (00:00)
54 Vertical Drop Heroes HD Jul 25, 2014 $6.9944% (77%/70%)200,000 .. 500,0000%00:00 (00:00)
55 Flinthook Apr 18, 2017 $14.9942% (76%/80%)50,000 .. 100,0000%00:00 (00:00)
56 [email protected] Feb 9, 2017 $14.9940% (75%/66%)0 .. 20,0000%00:00 (00:00)
57 Aeon May 22, 2017 $4.9940% (75%)0 .. 20,0000%00:00 (00:00)
58 Castle Torgeath: Descent into Darkness Jan 22, 2016 $7.9940% (75%)0 .. 20,0000%00:00 (00:00)
59 ABRACA - Imagic Games Mar 31, 2016 $14.99N/A (N/A)0 .. 20,0000%00:00 (00:00)
60 TankZone Battle Sep 21, 2015 $8.9939% (74%)0 .. 20,0000%00:00 (00:00)
61 Putrefaction 2: Void Walker May 29, 2017 $4.9939% (74%)0 .. 20,0000%00:00 (00:00)
62 Kraven Manor Sep 26, 2014 $5.9939% (74%/58%)100,000 .. 200,0000.63%00:01 (00:00)
63 Mighty Gunvolt Sep 29, 2015 $4.9939% (74%)20,000 .. 50,0000%00:00 (00:00)
64 Kill to Collect Apr 6, 2016 $9.9937% (73%/57%)0 .. 20,0000%00:00 (00:00)
65 Far Space VR May 10, 2017 $1.9935% (72%)20,000 .. 50,0000%00:00 (00:00)
66 EPOCH Jun 5, 2014 $9.99N/A (N/A)0 .. 20,0008.33%00:04 (00:01)
67 Disney•Pixar Finding Nemo May 11, 2003 $9.9935% (72%)0 .. 20,0000%00:00 (00:00)
68 Caravan Sep 30, 2016 $9.9935% (72%)0 .. 20,0000%00:00 (00:00)
69 Xenus 2. White gold. Nov 23, 2016 $14.9934% (71%)0 .. 20,0000%00:00 (00:00)
70 The Girl and the Robot Aug 17, 2016 $9.99N/A (N/A)0 .. 20,0000%00:00 (00:00)
71 Tank Brawl Apr 20, 2016 $4.99N/A (N/A)0 .. 20,0000%00:00 (00:00)
72 Westboro Apr 27, 2017 $17.9932% (70%)0 .. 20,0000%00:00 (00:00)
73 Deathtrap Dungeon Oct 3, 2013 $6.9932% (70%)0 .. 20,0000%00:00 (00:00)
74 Arctic Adventure Oct 9, 1991 N/AN/A (N/A)0 .. 20,0000%00:00 (00:00)
75 Planet of Mubu Apr 1, 2017 $5.99N/A (N/A)20,000 .. 50,0000%00:00 (00:00)
76 Phantaruk Aug 16, 2016 $4.9930% (69%/53%)20,000 .. 50,0000%00:00 (00:00)
77 Escape From Nazi Labs Nov 8, 2016 $0.74N/A (N/A)20,000 .. 50,00013.24%04:00 (03:02)
78 The Next World Mar 7, 2016 $12.9930% (69%)0 .. 20,0000%00:00 (00:00)
79 Xenon Valkyrie Feb 3, 2017 $9.9929% (68%)0 .. 20,0000%00:00 (00:00)
80 Wooden Sen'SeY Dec 5, 2013 $9.9929% (68%)20,000 .. 50,0000%00:00 (00:00)
81 Redux: Dark Matters Dec 12, 2014 $12.99N/A (N/A/61%)0 .. 20,0000%00:00 (00:00)
82 Back in 1995 Apr 28, 2016 $9.9926% (66%/52%)0 .. 20,0000%00:00 (00:00)
83 Exile's End Aug 31, 2015 $9.99N/A (N/A)0 .. 20,0000%00:00 (00:00)
84 King Lucas Dec 1, 2016 $4.9926% (66%)20,000 .. 50,0000%00:00 (00:00)
85 Cavern of Time Feb 10, 2017 $3.99N/A (N/A)0 .. 20,0000%00:00 (00:00)
86 Legends of the Universe - StarCore Jul 25, 2016 $3.99N/A (N/A)0 .. 20,0000%00:00 (00:00)
87 Epigenesis Aug 1, 2014 Free25% (65%)200,000 .. 500,0000.37%00:11 (00:03)
88 Crazy Catman Jun 1, 2017 $0.9924% (64%)20,000 .. 50,0001.19%00:03 (00:01)
89 Marble Mountain Apr 5, 2016 $9.99N/A (N/A)0 .. 20,0000%00:00 (00:00)
90 Bladestar Jan 15, 2016 $9.99N/A (N/A)0 .. 20,0004.55%02:50 (00:56)
91 JET HERO Feb 17, 2017 $0.69N/A (N/A)0 .. 20,0000%00:00 (00:00)
92 Masked Forces Nov 23, 2016 $0.9924% (64%)0 .. 20,0002.78%00:09 (00:03)
93 Nightmare on Azathoth Oct 30, 2015 $0.99N/A (N/A)0 .. 20,0000%00:00 (00:00)
94 Zombie Camp: Last Survivor Apr 17, 2015 $1.99N/A (N/A)0 .. 20,0000%00:00 (00:00)
95 Predator Simulator May 11, 2015 $2.9922% (63%)20,000 .. 50,0000%00:00 (00:00)
96 Alpha Zylon Dec 19, 2007 $4.9921% (62%)20,000 .. 50,0000%00:00 (00:00)
97 Momento Temporis: Light from the Deep Oct 27, 2016 $4.99N/A (N/A)0 .. 20,0000%00:00 (00:00)
98 Disney Alice in Wonderland Mar 2, 2010 $19.9920% (61%/63%)0 .. 20,0000%00:00 (00:00)
99 Q*bert: Rebooted Jul 1, 2014 $4.9919% (60%)0 .. 20,0000%00:00 (00:00)
100 Pane In The Glass Aug 8, 2016 $4.99N/A (N/A)0 .. 20,0000%00:00 (00:00)
101 Yar's Revenge Apr 28, 2011 $9.99N/A (N/A/56%)0 .. 20,0000%00:00 (00:00)
102 I, Gladiator Apr 7, 2015 $7.9919% (60%)0 .. 20,0000%00:00 (00:00)
103 Majestic Nights Oct 30, 2014 $4.9919% (60%/32%)0 .. 20,0000%00:00 (00:00)
104 Shadowcrypt Jul 7, 2014 $4.9917% (58%)0 .. 20,0000%00:00 (00:00)
105 The Ruins: VR Escape the Room Apr 13, 2017 $5.99N/A (N/A)0 .. 20,0000%00:00 (00:00)
106 Chasing Dead Mar 3, 2016 $9.9916% (57%)0 .. 20,0000%00:00 (00:00)
107 Silver Bullet: Prometheus Apr 8, 2016 $4.9916% (57%)0 .. 20,0000%00:00 (00:00)
108 The Curse of Nordic Cove Apr 23, 2015 $0.99N/A (N/A)0 .. 20,0000%00:00 (00:00)
109 Redneck Rampage Apr 30, 1997 $9.99N/A (N/A)0 .. 20,0000%00:00 (00:00)
110 Fossil Echo Jul 8, 2016 $9.9915% (55%/61%)0 .. 20,0000%00:00 (00:00)
111 QUALIA 3: Multi Agent Apr 18, 2014 $4.99N/A (N/A)0 .. 20,0000%00:00 (00:00)
112 Princess Kaguya: Legend of the Moon Warrior Aug 4, 2015 $10.99N/A (N/A)0 .. 20,0001.96%00:01 (00:00)
113 Police Quest: SWAT Sep 30, 1995 $5.99N/A (N/A)0 .. 20,0000%00:00 (00:00)
114 Scooby Doo! & Looney Tunes Cartoon Universe: Adventure Jul 16, 2014 $19.99N/A (N/A)0 .. 20,0000%00:00 (00:00)
115 Project Root May 1, 2014 $9.9910% (49%)20,000 .. 50,0001.28%00:05 (00:01)
116 Plancon: Space Conflict Aug 8, 2016 $6.9910% (48%)20,000 .. 50,0000%00:00 (00:00)
117 Infinium Strike Jul 14, 2016 $9.999% (47%)0 .. 20,0000%00:00 (00:00)
118 Super Dungeon Bros Nov 1, 2016 $19.99N/A (N/A)0 .. 20,0000%00:00 (00:00)
119 Fabula Mortis Oct 27, 2014 $7.99N/A (N/A)0 .. 20,0000%00:00 (00:00)
120 Red Johnson's Chronicles - 1+2 - Steam Special Edition Sep 5, 2014 $9.99N/A (N/A)0 .. 20,0000%00:00 (00:00)
121 Dusk 12 Aug 28, 2009 $0.518% (44%)50,000 .. 100,0000%00:00 (00:00)
122 iStorm Mar 16, 2017 Free7% (43%)0 .. 20,0000%00:00 (00:00)
123 Blinding Dark Aug 12, 2014 $9.997% (42%)20,000 .. 50,0000%00:00 (00:00)
124 Crouching Pony Hidden Dragon Jul 11, 2014 $9.996% (40%)20,000 .. 50,0000%00:00 (00:00)
125 Polterheist Feb 21, 2017 $4.996% (40%)0 .. 20,0000%00:00 (00:00)
126 Beyond Space Remastered Edition Jun 16, 2014 $4.996% (39%)20,000 .. 50,0001.56%00:01 (00:00)
127 CDF Ghostship Jun 26, 2015 $9.994% (33%)0 .. 20,00021.05%03:47 (04:39)
128 Disney Fairies: Tinker Bell's Adventure Oct 6, 2014 $19.99N/A (N/A)0 .. 20,0000%00:00 (00:00)
129 Hush Jul 29, 2015 $9.99N/A (N/A)0 .. 20,0000%00:00 (00:00)
130 Xenophage: Alien Bloodsport Dec 29, 1995 N/AN/A (N/A)20,000 .. 50,0000%00:00 (00:00)
131 NightZ Feb 14, 2017 $0.993% (28%)20,000 .. 50,0000%00:00 (00:00)
132 Masterspace Jun 15, 2015 $7.993% (27%)0 .. 20,0000%00:00 (00:00)
133 Alone in the Dark: Illumination Jun 11, 2015 $19.992% (24%)0 .. 20,0000%00:00 (00:00)
134 Battle For The Sun Jul 22, 2015 $4.991% (15%)0 .. 20,0000%00:00 (00:00)
135 Iron Soul Feb 26, 2014 $4.991% (10%)0 .. 20,0000%00:00 (00:00)

Owners of this game also own:

Access restricted.

This feature is only available to users with special access rights. Sorry.

If you want to proceed, you need to register or log in first and then back Steam Spy on Patreon. Look for Indie or Pro pledge.

Don't forget to use the same email as on Steam Spy!

Playtime distribution:

Access restricted.

This feature is only available to users with special access rights. Sorry.

If you want to proceed, you need to register or log in first and then back Steam Spy on Patreon. Look for Indie or Pro pledge.

Don't forget to use the same email as on Steam Spy!

Playtime (2 weeks):

Access restricted.

This feature is only available to users with special access rights. Sorry.

If you want to proceed, you need to register or log in first and then back Steam Spy on Patreon. Look for Indie or Pro pledge.

Don't forget to use the same email as on Steam Spy!

User reviews:

Login required.

Please register or log in to see this information.